createdAt,value
2022-10-10T00:00:56.719Z,0.00
2022-10-10T00:01:56.730Z,0.00
2022-10-10T00:02:56.684Z,0.00
2022-10-10T00:03:56.692Z,0.00
2022-10-10T00:04:56.661Z,0.00
2022-10-10T00:05:56.654Z,0.00
2022-10-10T00:06:56.638Z,0.00
2022-10-10T00:07:56.623Z,0.00
2022-10-10T00:08:56.640Z,0.00
2022-10-10T00:09:56.604Z,0.00
2022-10-10T00:10:56.636Z,0.00
2022-10-10T00:11:56.578Z,0.00
2022-10-10T00:12:56.569Z,0.00
2022-10-10T00:13:56.585Z,0.00
2022-10-10T00:14:56.550Z,0.00
2022-10-10T00:15:56.540Z,0.00
2022-10-10T00:16:56.528Z,0.00
2022-10-10T00:17:56.544Z,0.00
2022-10-10T00:18:56.531Z,0.00
2022-10-10T00:19:56.492Z,0.00
2022-10-10T00:20:56.486Z,0.00
2022-10-10T00:21:56.490Z,0.00
2022-10-10T00:22:56.493Z,0.00
2022-10-10T00:23:56.459Z,0.00
2022-10-10T00:24:56.439Z,0.00
2022-10-10T00:25:56.434Z,0.00
2022-10-10T00:26:56.435Z,0.00
2022-10-10T00:27:56.430Z,0.00
2022-10-10T00:28:56.392Z,0.00
2022-10-10T00:29:56.408Z,0.00
2022-10-10T00:30:56.372Z,0.00
2022-10-10T00:31:56.362Z,0.00
2022-10-10T00:32:56.351Z,0.00
2022-10-10T00:33:56.342Z,0.00
2022-10-10T00:34:56.354Z,0.00
2022-10-10T00:35:56.325Z,0.00
2022-10-10T00:36:56.305Z,0.00
2022-10-10T00:37:56.322Z,0.00
2022-10-10T00:38:56.294Z,0.00
2022-10-10T00:39:56.283Z,0.00
2022-10-10T00:40:56.291Z,0.00
2022-10-10T00:41:56.256Z,0.00
2022-10-10T00:42:56.261Z,0.00
2022-10-10T00:43:56.236Z,0.00
2022-10-10T00:44:56.246Z,0.00
2022-10-10T00:45:56.236Z,0.00
2022-10-10T00:46:56.198Z,0.00
2022-10-10T00:47:56.191Z,0.00
2022-10-10T00:48:56.179Z,0.00
2022-10-10T00:49:56.166Z,0.00
2022-10-10T00:50:56.188Z,0.00
2022-10-10T00:51:56.148Z,0.00
2022-10-10T00:52:56.135Z,0.00
2022-10-10T00:53:56.129Z,0.00
2022-10-10T00:54:56.112Z,0.00
2022-10-10T00:55:56.105Z,0.00
2022-10-10T00:56:56.106Z,0.00
2022-10-10T00:57:56.112Z,0.00
2022-10-10T00:58:56.091Z,0.00
2022-10-10T00:59:56.090Z,0.00
2022-10-10T01:00:56.096Z,0.00
2022-10-10T01:01:56.039Z,0.00
2022-10-10T01:02:56.031Z,0.00
2022-10-10T01:03:56.015Z,0.00
2022-10-10T01:04:56.028Z,0.00
2022-10-10T01:05:55.992Z,0.00
2022-10-10T01:06:55.982Z,0.00
2022-10-10T01:07:56.001Z,0.00
2022-10-10T01:08:55.969Z,0.00
2022-10-10T01:09:55.978Z,0.00
2022-10-10T01:10:55.942Z,0.00
2022-10-10T01:11:55.929Z,0.00
2022-10-10T01:12:55.941Z,0.00
2022-10-10T01:13:55.908Z,0.00
2022-10-10T01:14:55.942Z,0.00
2022-10-10T01:15:55.891Z,0.00
2022-10-10T01:16:55.880Z,0.00
2022-10-10T01:17:55.864Z,0.00
2022-10-10T01:18:55.853Z,0.00
2022-10-10T01:19:55.860Z,0.00
2022-10-10T01:20:55.832Z,0.00
2022-10-10T01:21:55.820Z,0.00
2022-10-10T01:22:55.812Z,0.00
2022-10-10T01:23:55.822Z,0.00
2022-10-10T01:24:55.812Z,0.00
2022-10-10T01:25:55.781Z,0.00
2022-10-10T01:26:55.764Z,0.00
2022-10-10T01:27:55.760Z,0.00
2022-10-10T01:28:55.746Z,0.00
2022-10-10T01:29:55.770Z,0.00
2022-10-10T01:30:55.748Z,0.00
2022-10-10T01:31:55.726Z,0.00
2022-10-10T01:32:55.705Z,0.00
2022-10-10T01:33:55.694Z,0.00
2022-10-10T01:34:55.685Z,0.00
2022-10-10T01:35:55.690Z,0.00
2022-10-10T01:36:55.668Z,0.00
2022-10-10T01:37:55.680Z,0.00
2022-10-10T01:38:55.637Z,0.00
2022-10-10T01:39:55.634Z,0.00
2022-10-10T01:40:55.618Z,0.00
2022-10-10T01:41:55.608Z,0.00
2022-10-10T01:42:55.596Z,0.00
2022-10-10T01:43:55.607Z,0.00
2022-10-10T01:44:55.573Z,0.00
2022-10-10T01:45:55.562Z,0.00
2022-10-10T01:46:55.579Z,0.00
2022-10-10T01:47:55.551Z,0.00
2022-10-10T01:48:55.555Z,0.00
2022-10-10T01:49:55.520Z,0.00
2022-10-10T01:50:55.509Z,0.00
2022-10-10T01:51:55.500Z,0.00
2022-10-10T01:52:55.490Z,0.00
2022-10-10T01:53:55.501Z,0.00
2022-10-10T01:54:55.467Z,0.00
2022-10-10T01:55:55.458Z,0.00
2022-10-10T01:56:55.446Z,0.00
2022-10-10T01:57:55.436Z,0.00
2022-10-10T01:58:55.449Z,0.00
2022-10-10T01:59:55.415Z,0.00
2022-10-10T02:00:55.490Z,0.00
2022-10-10T02:01:55.394Z,0.00
2022-10-10T02:02:55.401Z,0.00
2022-10-10T02:03:55.382Z,0.00
2022-10-10T02:04:55.361Z,0.00
2022-10-10T02:05:55.349Z,0.00
2022-10-10T02:06:55.334Z,0.00
2022-10-10T02:07:55.327Z,0.00
2022-10-10T02:08:55.346Z,0.00
2022-10-10T02:09:55.316Z,0.00
2022-10-10T02:10:55.303Z,0.00
2022-10-10T02:11:55.284Z,0.00
2022-10-10T02:12:55.272Z,0.00
2022-10-10T02:13:55.283Z,0.00
2022-10-10T02:14:55.271Z,0.00
2022-10-10T02:15:55.238Z,0.00
2022-10-10T02:16:55.228Z,0.00
2022-10-10T02:17:55.218Z,0.00
2022-10-10T02:18:55.227Z,0.00
2022-10-10T02:19:55.268Z,0.00
2022-10-10T02:20:55.185Z,0.00
2022-10-10T02:21:55.173Z,0.00
2022-10-10T02:22:55.168Z,0.00
2022-10-10T02:23:55.155Z,0.00
2022-10-10T02:24:55.210Z,0.00
2022-10-10T02:25:55.131Z,0.00
2022-10-10T02:26:55.120Z,0.00
2022-10-10T02:27:55.104Z,0.00
2022-10-10T02:28:55.098Z,0.00
2022-10-10T02:29:55.116Z,0.00
2022-10-10T02:30:55.101Z,0.00
2022-10-10T02:31:55.060Z,0.00
2022-10-10T02:32:55.062Z,0.00
2022-10-10T02:33:55.037Z,0.00
2022-10-10T02:34:55.055Z,0.00
2022-10-10T02:35:55.049Z,0.00
2022-10-10T02:36:55.010Z,0.00
2022-10-10T02:37:54.998Z,0.00
2022-10-10T02:38:54.987Z,0.00
2022-10-10T02:39:54.978Z,0.00
2022-10-10T02:40:54.992Z,0.00
2022-10-10T02:41:54.953Z,0.00
2022-10-10T02:42:54.980Z,0.00
2022-10-10T02:43:54.933Z,0.00
2022-10-10T02:44:54.922Z,0.00
2022-10-10T02:45:54.943Z,0.00
2022-10-10T02:46:54.900Z,0.00
2022-10-10T02:47:54.891Z,0.00
2022-10-10T02:48:54.876Z,0.00
2022-10-10T02:49:54.873Z,0.00
2022-10-10T02:50:54.876Z,0.00
2022-10-10T02:51:54.865Z,0.00
2022-10-10T02:52:54.834Z,0.00
2022-10-10T02:53:54.830Z,0.00
2022-10-10T02:54:54.818Z,0.00
2022-10-10T02:55:54.798Z,0.00
2022-10-10T02:56:54.818Z,0.00
2022-10-10T02:57:54.810Z,0.00
2022-10-10T02:58:54.769Z,0.00
2022-10-10T02:59:54.759Z,0.00
2022-10-10T03:00:54.782Z,0.00
2022-10-10T03:01:54.773Z,0.00
2022-10-10T03:02:54.939Z,0.00
2022-10-10T03:03:54.716Z,0.00
2022-10-10T03:04:54.708Z,0.00
2022-10-10T03:05:54.715Z,0.00
2022-10-10T03:06:54.729Z,0.00
2022-10-10T03:07:54.665Z,0.00
2022-10-10T03:08:54.663Z,0.00
2022-10-10T03:09:54.650Z,0.00
2022-10-10T03:10:54.638Z,0.00
2022-10-10T03:11:54.652Z,0.00
2022-10-10T03:12:54.617Z,0.00
2022-10-10T03:13:54.601Z,0.00
2022-10-10T03:14:54.606Z,0.00
2022-10-10T03:15:54.612Z,0.00
2022-10-10T03:16:54.574Z,0.00
2022-10-10T03:17:54.564Z,0.00
2022-10-10T03:18:54.551Z,0.00
2022-10-10T03:19:54.543Z,0.00
2022-10-10T03:20:54.548Z,0.00
2022-10-10T03:21:54.519Z,0.00
2022-10-10T03:22:54.550Z,0.00
2022-10-10T03:23:54.495Z,0.00
2022-10-10T03:24:54.492Z,0.00
2022-10-10T03:25:54.480Z,0.00
2022-10-10T03:26:54.465Z,0.00
2022-10-10T03:27:54.473Z,0.00
2022-10-10T03:28:54.441Z,0.00
2022-10-10T03:29:54.431Z,0.00
2022-10-10T03:30:54.423Z,0.00
2022-10-10T03:31:54.437Z,0.00
2022-10-10T03:32:54.406Z,0.00
2022-10-10T03:33:54.387Z,0.00
2022-10-10T03:34:54.394Z,0.00
2022-10-10T03:35:54.369Z,0.00
2022-10-10T03:36:54.378Z,0.00
2022-10-10T03:37:54.348Z,0.00
2022-10-10T03:38:54.377Z,0.00
2022-10-10T03:39:54.329Z,0.00
2022-10-10T03:40:54.313Z,0.00
2022-10-10T03:41:54.307Z,0.00
2022-10-10T03:42:54.364Z,0.00
2022-10-10T03:43:54.303Z,0.00
2022-10-10T03:44:54.271Z,0.00
2022-10-10T03:45:54.259Z,0.00
2022-10-10T03:46:54.250Z,0.00
2022-10-10T03:47:54.236Z,0.00
2022-10-10T03:48:54.250Z,0.00
2022-10-10T03:49:54.217Z,0.00
2022-10-10T03:50:54.205Z,0.00
2022-10-10T03:51:54.198Z,0.00
2022-10-10T03:52:54.206Z,0.00
2022-10-10T03:53:54.206Z,0.00
2022-10-10T03:54:54.182Z,0.00
2022-10-10T03:55:54.149Z,0.00
2022-10-10T03:56:54.141Z,0.00
2022-10-10T03:57:54.127Z,0.00
2022-10-10T03:58:54.120Z,0.00
2022-10-10T03:59:54.133Z,0.00
2022-10-10T04:00:54.177Z,0.00
2022-10-10T04:01:54.089Z,0.00
2022-10-10T04:02:54.326Z,0.00
2022-10-10T04:03:54.071Z,0.00
2022-10-10T04:04:54.088Z,0.00
2022-10-10T04:05:54.048Z,0.00
2022-10-10T04:06:54.035Z,0.00
2022-10-10T04:07:54.020Z,0.00
2022-10-10T04:08:54.032Z,0.00
2022-10-10T04:09:54.023Z,0.00
2022-10-10T04:10:54.010Z,0.00
2022-10-10T04:11:53.983Z,0.00
2022-10-10T04:12:54.095Z,0.00
2022-10-10T04:13:53.958Z,0.00
2022-10-10T04:14:53.969Z,0.00
2022-10-10T04:15:53.953Z,0.00
2022-10-10T04:16:53.923Z,0.00
2022-10-10T04:17:53.916Z,0.00
2022-10-10T04:18:53.905Z,0.00
2022-10-10T04:19:53.894Z,0.00
2022-10-10T04:20:53.930Z,0.00
2022-10-10T04:21:53.871Z,0.00
2022-10-10T04:22:54.222Z,0.00
2022-10-10T04:23:53.846Z,0.00
2022-10-10T04:24:53.840Z,0.00
2022-10-10T04:25:53.851Z,0.00
2022-10-10T04:26:53.836Z,0.00
2022-10-10T04:27:58.519Z,0.00
2022-10-10T04:28:54.797Z,0.00
2022-10-10T04:29:53.829Z,0.00
2022-10-10T04:30:53.776Z,0.00
2022-10-10T04:31:53.763Z,0.00
2022-10-10T04:32:53.961Z,0.00
2022-10-10T04:33:53.743Z,0.00
2022-10-10T04:34:53.734Z,0.00
2022-10-10T04:35:53.740Z,0.00
2022-10-10T04:36:53.711Z,0.00
2022-10-10T04:37:53.718Z,0.00
2022-10-10T04:38:53.688Z,0.00
2022-10-10T04:39:53.685Z,0.00
2022-10-10T04:40:53.687Z,0.00
2022-10-10T04:41:53.658Z,0.00
2022-10-10T04:42:53.890Z,0.00
2022-10-10T04:43:53.656Z,0.00
2022-10-10T04:44:53.625Z,0.00
2022-10-10T04:45:53.614Z,0.00
2022-10-10T04:46:53.604Z,0.00
2022-10-10T04:47:53.591Z,0.00
2022-10-10T04:48:53.604Z,0.00
2022-10-10T04:49:53.577Z,0.00
2022-10-10T04:50:53.564Z,0.00
2022-10-10T04:51:53.549Z,0.00
2022-10-10T04:52:53.968Z,0.00
2022-10-10T04:53:53.558Z,0.00
2022-10-10T04:54:53.518Z,0.00
2022-10-10T04:55:53.510Z,0.00
2022-10-10T04:56:53.506Z,0.00
2022-10-10T04:57:53.484Z,0.00
2022-10-10T04:58:53.492Z,0.00
2022-10-10T04:59:53.486Z,0.00
2022-10-10T05:00:53.452Z,0.00
2022-10-10T05:01:54.168Z,0.00
2022-10-10T05:02:54.009Z,0.00
2022-10-10T05:03:53.420Z,0.00
2022-10-10T05:04:53.434Z,0.00
2022-10-10T05:05:53.400Z,0.00
2022-10-10T05:06:53.384Z,4.00
2022-10-10T05:07:55.643Z,0.00
2022-10-10T05:08:53.365Z,0.00
2022-10-10T05:09:53.381Z,0.00
2022-10-10T05:10:53.342Z,4.00
2022-10-10T05:11:53.331Z,4.00
2022-10-10T05:12:53.784Z,0.00
2022-10-10T05:13:53.311Z,4.00
2022-10-10T05:14:53.345Z,4.00
2022-10-10T05:15:53.287Z,4.00
2022-10-10T05:16:53.279Z,4.00
2022-10-10T05:17:53.267Z,8.00
2022-10-10T05:18:53.257Z,4.00
2022-10-10T05:19:53.258Z,8.00
2022-10-10T05:20:53.233Z,8.00
2022-10-10T05:21:53.228Z,8.00
2022-10-10T05:22:53.717Z,8.00
2022-10-10T05:23:53.198Z,12.00
2022-10-10T05:24:53.193Z,8.00
2022-10-10T05:25:53.187Z,12.00
2022-10-10T05:26:53.176Z,12.00
2022-10-10T05:27:53.178Z,12.00
2022-10-10T05:28:53.149Z,16.00
2022-10-10T05:29:53.155Z,16.00
2022-10-10T05:30:53.150Z,16.00
2022-10-10T05:31:53.116Z,16.00
2022-10-10T05:32:53.646Z,20.00
2022-10-10T05:33:53.112Z,16.00
2022-10-10T05:34:53.084Z,20.00
2022-10-10T05:35:53.069Z,20.00
2022-10-10T05:36:53.064Z,24.00
2022-10-10T05:37:53.072Z,24.00
2022-10-10T05:38:53.065Z,24.00
2022-10-10T05:39:54.776Z,28.00
2022-10-10T05:40:53.017Z,28.00
2022-10-10T05:41:53.006Z,28.00
2022-10-10T05:42:53.320Z,28.00
2022-10-10T05:43:53.007Z,28.00
2022-10-10T05:44:52.973Z,32.00
2022-10-10T05:45:52.963Z,32.00
2022-10-10T05:46:52.970Z,32.00
2022-10-10T05:47:52.948Z,36.00
2022-10-10T05:48:52.963Z,36.00
2022-10-10T05:49:52.914Z,36.00
2022-10-10T05:50:52.910Z,36.00
2022-10-10T05:51:52.893Z,36.00
2022-10-10T05:52:53.612Z,36.00
2022-10-10T05:53:52.880Z,36.00
2022-10-10T05:54:52.891Z,40.00
2022-10-10T05:55:52.854Z,40.00
2022-10-10T05:56:52.847Z,44.00
2022-10-10T05:57:52.861Z,44.00
2022-10-10T05:58:52.825Z,48.00
2022-10-10T05:59:52.832Z,48.00
2022-10-10T06:00:52.802Z,48.00
2022-10-10T06:01:52.792Z,52.00
2022-10-10T06:02:53.214Z,52.00
2022-10-10T06:03:52.805Z,52.00
2022-10-10T06:04:52.774Z,56.00
2022-10-10T06:05:52.744Z,56.00
2022-10-10T06:06:52.741Z,60.00
2022-10-10T06:08:07.570Z,60.00
2022-10-10T06:08:53.732Z,60.00
2022-10-10T06:09:52.702Z,60.00
2022-10-10T06:10:52.720Z,60.00
2022-10-10T06:11:52.685Z,64.00
2022-10-10T06:12:53.100Z,64.00
2022-10-10T06:13:52.658Z,68.00
2022-10-10T06:14:52.660Z,72.00
2022-10-10T06:15:52.662Z,84.00
2022-10-10T06:16:52.627Z,96.00
2022-10-10T06:17:52.614Z,104.00
2022-10-10T06:18:52.669Z,112.00
2022-10-10T06:19:52.593Z,112.00
2022-10-10T06:20:52.585Z,112.00
2022-10-10T06:21:52.568Z,112.00
2022-10-10T06:22:53.163Z,116.00
2022-10-10T06:23:52.573Z,120.00
2022-10-10T06:24:53.211Z,124.00
2022-10-10T06:25:52.568Z,120.00
2022-10-10T06:26:52.514Z,116.00
2022-10-10T06:27:52.507Z,112.00
2022-10-10T06:28:52.496Z,108.00
2022-10-10T06:29:52.481Z,108.00
2022-10-10T06:30:52.471Z,92.00
2022-10-10T06:31:52.482Z,96.00
2022-10-10T06:32:56.008Z,96.00
2022-10-10T06:33:52.443Z,88.00
2022-10-10T06:34:52.450Z,92.00
2022-10-10T06:35:52.430Z,84.00
2022-10-10T06:36:52.436Z,76.00
2022-10-10T06:37:52.420Z,68.00
2022-10-10T06:38:52.381Z,68.00
2022-10-10T06:39:52.382Z,72.00
2022-10-10T06:40:52.372Z,72.00
2022-10-10T06:41:52.374Z,76.00
2022-10-10T06:42:52.842Z,72.00
2022-10-10T06:43:52.330Z,76.00
2022-10-10T06:44:52.316Z,72.00
2022-10-10T06:45:52.314Z,76.00
2022-10-10T06:46:52.315Z,80.00
2022-10-10T06:47:52.290Z,84.00
2022-10-10T06:48:52.292Z,84.00
2022-10-10T06:49:52.269Z,84.00
2022-10-10T06:50:52.269Z,88.00
2022-10-10T06:51:52.245Z,96.00
2022-10-10T06:52:52.557Z,108.00
2022-10-10T06:53:52.251Z,112.00
2022-10-10T06:54:52.220Z,116.00
2022-10-10T06:55:52.214Z,112.00
2022-10-10T06:56:52.216Z,112.00
2022-10-10T06:57:52.180Z,116.00
2022-10-10T06:58:52.165Z,116.00
2022-10-10T06:59:52.159Z,120.00
2022-10-10T07:00:52.143Z,116.00
2022-10-10T07:01:52.217Z,120.00
2022-10-10T07:02:52.624Z,120.00
2022-10-10T07:03:52.116Z,120.00
2022-10-10T07:04:52.110Z,120.00
2022-10-10T07:05:52.097Z,120.00
2022-10-10T07:06:52.248Z,120.00
2022-10-10T07:07:52.091Z,124.00
2022-10-10T07:08:52.070Z,124.00
2022-10-10T07:09:52.049Z,124.00
2022-10-10T07:10:52.041Z,124.00
2022-10-10T07:11:52.045Z,124.00
2022-10-10T07:12:52.087Z,124.00
2022-10-10T07:13:52.003Z,124.00
2022-10-10T07:14:51.994Z,124.00
2022-10-10T07:15:51.982Z,124.00
2022-10-10T07:16:52.001Z,128.00
2022-10-10T07:17:54.464Z,128.00
2022-10-10T07:18:51.959Z,128.00
2022-10-10T07:19:51.941Z,128.00
2022-10-10T07:20:51.934Z,132.00
2022-10-10T07:21:51.940Z,132.00
2022-10-10T07:22:52.343Z,132.00
2022-10-10T07:23:51.902Z,132.00
2022-10-10T07:24:51.890Z,132.00
2022-10-10T07:25:51.875Z,132.00
2022-10-10T07:26:55.526Z,132.00
2022-10-10T07:27:52.856Z,132.00
2022-10-10T07:28:51.842Z,136.00
2022-10-10T07:29:51.834Z,136.00
2022-10-10T07:30:51.829Z,144.00
2022-10-10T07:31:51.838Z,140.00
2022-10-10T07:32:52.133Z,144.00
2022-10-10T07:33:51.796Z,152.00
2022-10-10T07:34:51.777Z,168.00
2022-10-10T07:35:51.764Z,180.00
2022-10-10T07:36:51.789Z,184.00
2022-10-10T07:37:51.750Z,224.00
2022-10-10T07:38:51.909Z,248.00
2022-10-10T07:39:51.728Z,304.00
2022-10-10T07:40:51.713Z,312.00
2022-10-10T07:41:51.704Z,308.00
2022-10-10T07:42:52.092Z,324.00
2022-10-10T07:43:51.703Z,308.00
2022-10-10T07:44:51.696Z,320.00
2022-10-10T07:45:51.727Z,316.00
2022-10-10T07:46:51.653Z,296.00
2022-10-10T07:47:51.905Z,272.00
2022-10-10T07:48:51.626Z,248.00
2022-10-10T07:49:51.641Z,256.00
2022-10-10T07:50:51.604Z,300.00
2022-10-10T07:51:51.619Z,340.00
2022-10-10T07:52:51.584Z,372.00
2022-10-10T07:53:51.591Z,384.00
2022-10-10T07:54:51.619Z,400.00
2022-10-10T07:55:51.549Z,408.00
2022-10-10T07:56:51.544Z,424.00
2022-10-10T07:57:53.574Z,448.00
2022-10-10T07:58:51.537Z,468.00
2022-10-10T07:59:51.510Z,452.00
2022-10-10T08:00:51.493Z,468.00
2022-10-10T08:01:51.553Z,480.00
2022-10-10T08:02:51.500Z,480.00
2022-10-10T08:03:51.468Z,436.00
2022-10-10T08:04:51.453Z,404.00
2022-10-10T08:05:51.449Z,376.00
2022-10-10T08:06:51.442Z,328.00
2022-10-10T08:07:51.821Z,312.00
2022-10-10T08:08:52.371Z,280.00
2022-10-10T08:09:51.404Z,264.00
2022-10-10T08:10:51.419Z,260.00
2022-10-10T08:11:51.379Z,244.00
2022-10-10T08:12:51.371Z,228.00
2022-10-10T08:13:51.379Z,180.00
2022-10-10T08:14:51.350Z,200.00
2022-10-10T08:15:51.340Z,192.00
2022-10-10T08:16:51.333Z,168.00
2022-10-10T08:17:51.649Z,168.00
2022-10-10T08:18:51.304Z,180.00
2022-10-10T08:19:51.297Z,152.00
2022-10-10T08:20:51.280Z,144.00
2022-10-10T08:21:51.269Z,164.00
2022-10-10T08:22:51.484Z,192.00
2022-10-10T08:23:51.280Z,264.00
2022-10-10T08:24:51.243Z,348.00
2022-10-10T08:25:51.225Z,400.00
2022-10-10T08:26:51.292Z,400.00
2022-10-10T08:27:51.205Z,340.00
2022-10-10T08:28:51.316Z,296.00
2022-10-10T08:29:51.215Z,212.00
2022-10-10T08:30:51.168Z,196.00
2022-10-10T08:31:51.160Z,196.00
2022-10-10T08:32:51.438Z,196.00
2022-10-10T08:33:51.162Z,192.00
2022-10-10T08:34:51.133Z,192.00
2022-10-10T08:35:51.121Z,188.00
2022-10-10T08:36:51.119Z,192.00
2022-10-10T08:37:51.125Z,192.00
2022-10-10T08:38:51.100Z,196.00
2022-10-10T08:39:51.193Z,196.00
2022-10-10T08:40:51.060Z,192.00
2022-10-10T08:41:51.056Z,196.00
2022-10-10T08:42:53.051Z,196.00
2022-10-10T08:43:51.054Z,200.00
2022-10-10T08:44:51.021Z,196.00
2022-10-10T08:45:51.008Z,200.00
2022-10-10T08:46:51.001Z,200.00
2022-10-10T08:47:51.029Z,192.00
2022-10-10T08:48:50.980Z,196.00
2022-10-10T08:49:50.968Z,200.00
2022-10-10T08:50:50.956Z,200.00
2022-10-10T08:51:50.948Z,200.00
2022-10-10T08:52:51.192Z,200.00
2022-10-10T08:53:50.940Z,196.00
2022-10-10T08:54:52.852Z,200.00
2022-10-10T08:55:51.901Z,212.00
2022-10-10T08:56:50.889Z,212.00
2022-10-10T08:57:50.884Z,220.00
2022-10-10T08:58:50.947Z,236.00
2022-10-10T08:59:50.893Z,268.00
2022-10-10T09:00:50.914Z,280.00
2022-10-10T09:02:18.975Z,292.00
2022-10-10T09:02:54.309Z,252.00
2022-10-10T09:03:50.841Z,228.00
2022-10-10T09:04:50.803Z,224.00
2022-10-10T09:05:50.796Z,224.00
2022-10-10T09:06:50.781Z,224.00
2022-10-10T09:07:50.770Z,224.00
2022-10-10T09:08:50.780Z,216.00
2022-10-10T09:09:50.752Z,220.00
2022-10-10T09:10:50.740Z,208.00
2022-10-10T09:11:50.729Z,220.00
2022-10-10T09:12:50.737Z,216.00
2022-10-10T09:13:50.710Z,224.00
2022-10-10T09:14:50.714Z,248.00
2022-10-10T09:15:50.683Z,312.00
2022-10-10T09:16:50.688Z,356.00
2022-10-10T09:17:50.687Z,392.00
2022-10-10T09:18:50.649Z,388.00
2022-10-10T09:19:50.640Z,352.00
2022-10-10T09:20:50.626Z,280.00
2022-10-10T09:21:50.622Z,272.00
2022-10-10T09:22:50.633Z,332.00
2022-10-10T09:23:50.594Z,412.00
2022-10-10T09:24:50.589Z,500.00
2022-10-10T09:25:50.576Z,552.00
2022-10-10T09:26:50.566Z,548.00
2022-10-10T09:27:50.580Z,464.00
2022-10-10T09:28:50.641Z,348.00
2022-10-10T09:29:50.534Z,292.00
2022-10-10T09:30:50.539Z,300.00
2022-10-10T09:31:50.536Z,308.00
2022-10-10T09:32:50.499Z,324.00
2022-10-10T09:33:50.493Z,368.00
2022-10-10T09:34:50.508Z,396.00
2022-10-10T09:35:50.485Z,420.00
2022-10-10T09:36:50.455Z,468.00
2022-10-10T09:37:50.448Z,532.00
2022-10-10T09:38:50.436Z,508.00
2022-10-10T09:39:50.436Z,464.00
2022-10-10T09:40:50.439Z,424.00
2022-10-10T09:41:50.405Z,384.00
2022-10-10T09:42:50.386Z,316.00
2022-10-10T09:43:50.399Z,356.00
2022-10-10T09:44:50.366Z,424.00
2022-10-10T09:45:50.354Z,528.00
2022-10-10T09:46:50.399Z,696.00
2022-10-10T09:47:50.337Z,752.00
2022-10-10T09:48:50.326Z,760.00
2022-10-10T09:49:50.360Z,740.00
2022-10-10T09:50:50.323Z,680.00
2022-10-10T09:51:50.311Z,700.00
2022-10-10T09:52:50.283Z,832.00
2022-10-10T09:53:50.279Z,960.00
2022-10-10T09:54:50.256Z,1076.00
2022-10-10T09:55:50.269Z,1160.00
2022-10-10T09:56:50.259Z,1164.00
2022-10-10T09:57:50.226Z,1132.00
2022-10-10T09:58:50.216Z,1156.00
2022-10-10T09:59:50.203Z,1208.00
2022-10-10T10:00:50.275Z,1284.00
2022-10-10T10:01:50.211Z,1196.00
2022-10-10T10:02:50.194Z,1184.00
2022-10-10T10:03:50.159Z,1064.00
2022-10-10T10:04:50.151Z,984.00
2022-10-10T10:05:50.139Z,784.00
2022-10-10T10:06:50.153Z,664.00
2022-10-10T10:07:50.121Z,636.00
2022-10-10T10:08:50.114Z,608.00
2022-10-10T10:09:50.104Z,496.00
2022-10-10T10:10:50.086Z,400.00
2022-10-10T10:11:50.095Z,396.00
2022-10-10T10:12:50.063Z,476.00
2022-10-10T10:13:50.059Z,600.00
2022-10-10T10:14:50.040Z,676.00
2022-10-10T10:15:50.036Z,736.00
2022-10-10T10:16:50.051Z,824.00
2022-10-10T10:17:50.010Z,880.00
2022-10-10T10:18:50.021Z,900.00
2022-10-10T10:19:49.997Z,876.00
2022-10-10T10:20:49.976Z,896.00
2022-10-10T10:21:49.977Z,852.00
2022-10-10T10:22:49.987Z,808.00
2022-10-10T10:23:49.946Z,788.00
2022-10-10T10:24:49.931Z,856.00
2022-10-10T10:25:49.931Z,928.00
2022-10-10T10:26:49.911Z,956.00
2022-10-10T10:27:49.928Z,960.00
2022-10-10T10:28:49.981Z,996.00
2022-10-10T10:29:49.877Z,1072.00
2022-10-10T10:30:49.871Z,1056.00
2022-10-10T10:31:49.875Z,1032.00
2022-10-10T10:32:49.877Z,1164.00
2022-10-10T10:33:49.862Z,1164.00
2022-10-10T10:34:49.848Z,1224.00
2022-10-10T10:35:49.817Z,1280.00
2022-10-10T10:36:49.805Z,1256.00
2022-10-10T10:37:49.799Z,1372.00
2022-10-10T10:38:49.805Z,1360.00
2022-10-10T10:39:49.818Z,1268.00
2022-10-10T10:40:49.762Z,1116.00
2022-10-10T10:41:49.753Z,1664.00
2022-10-10T10:42:49.737Z,692.00
2022-10-10T10:43:49.733Z,576.00
2022-10-10T10:44:49.719Z,504.00
2022-10-10T10:45:49.735Z,492.00
2022-10-10T10:46:49.697Z,508.00
2022-10-10T10:47:49.684Z,528.00
2022-10-10T10:48:49.675Z,544.00
2022-10-10T10:49:49.663Z,684.00
2022-10-10T10:50:49.671Z,2764.00
2022-10-10T10:51:49.666Z,5800.00
2022-10-10T10:52:49.629Z,3040.00
2022-10-10T10:53:49.625Z,1100.00
2022-10-10T10:54:49.607Z,1308.00
2022-10-10T10:55:49.597Z,936.00
2022-10-10T10:56:49.607Z,828.00
2022-10-10T10:58:10.463Z,644.00
2022-10-10T10:59:24.101Z,556.00
2022-10-10T11:00:21.952Z,536.00
2022-10-10T11:01:33.733Z,496.00
2022-10-10T11:01:58.530Z,476.00
2022-10-10T11:02:59.629Z,436.00
2022-10-10T11:05:17.735Z,424.00
2022-10-10T11:05:24.218Z,420.00
2022-10-10T11:05:50.590Z,3560.00
2022-10-10T11:07:13.754Z,7448.00
2022-10-10T11:07:50.542Z,3640.00
2022-10-10T11:08:49.462Z,552.00
2022-10-10T11:09:50.714Z,472.00
2022-10-10T11:10:49.443Z,444.00
2022-10-10T11:11:49.441Z,444.00
2022-10-10T11:12:49.411Z,440.00
2022-10-10T11:13:49.400Z,428.00
2022-10-10T11:14:49.421Z,408.00
2022-10-10T11:16:50.370Z,408.00
2022-10-10T11:17:49.360Z,392.00
2022-10-10T11:18:49.349Z,380.00
2022-10-10T11:19:49.334Z,364.00
2022-10-10T11:20:49.349Z,384.00
2022-10-10T11:21:49.316Z,380.00
2022-10-10T11:22:49.323Z,368.00
2022-10-10T11:23:49.288Z,380.00
2022-10-10T11:24:49.282Z,380.00
2022-10-10T11:25:49.292Z,376.00
2022-10-10T11:26:49.281Z,368.00
2022-10-10T11:27:49.250Z,368.00
2022-10-10T11:28:49.718Z,380.00
2022-10-10T11:29:49.227Z,372.00
2022-10-10T11:30:49.970Z,344.00
2022-10-10T11:31:49.213Z,360.00
2022-10-10T11:32:49.212Z,364.00
2022-10-10T11:33:49.186Z,360.00
2022-10-10T11:34:49.173Z,356.00
2022-10-10T11:35:49.165Z,376.00
2022-10-10T11:36:49.169Z,376.00
2022-10-10T11:37:49.163Z,380.00
2022-10-10T11:38:49.152Z,1320.00
2022-10-10T11:39:49.117Z,1220.00
2022-10-10T11:40:49.109Z,376.00
2022-10-10T11:41:49.108Z,420.00
2022-10-10T11:42:49.085Z,392.00
2022-10-10T11:43:49.075Z,416.00
2022-10-10T11:44:49.092Z,464.00
2022-10-10T11:45:53.640Z,524.00
2022-10-10T11:46:50.038Z,556.00
2022-10-10T11:47:49.033Z,496.00
2022-10-10T11:48:49.026Z,480.00
2022-10-10T11:49:49.041Z,464.00
2022-10-10T11:50:49.001Z,644.00
2022-10-10T11:51:48.980Z,408.00
2022-10-10T11:52:48.978Z,632.00
2022-10-10T11:53:48.986Z,352.00
2022-10-10T11:54:49.034Z,352.00
2022-10-10T11:55:48.942Z,344.00
2022-10-10T11:56:48.944Z,344.00
2022-10-10T11:57:48.925Z,340.00
2022-10-10T11:58:48.948Z,328.00
2022-10-10T11:59:48.927Z,332.00
2022-10-10T12:00:48.887Z,340.00
2022-10-10T12:01:48.959Z,328.00
2022-10-10T12:02:48.875Z,328.00
2022-10-10T12:03:48.881Z,328.00
2022-10-10T12:04:48.849Z,320.00
2022-10-10T12:05:48.835Z,324.00
2022-10-10T12:06:48.824Z,324.00
2022-10-10T12:07:48.837Z,320.00
2022-10-10T12:08:48.803Z,320.00
2022-10-10T12:09:48.789Z,316.00
2022-10-10T12:10:48.900Z,320.00
2022-10-10T12:11:48.768Z,320.00
2022-10-10T12:12:48.777Z,324.00
2022-10-10T12:13:48.789Z,320.00
2022-10-10T12:14:48.742Z,320.00
2022-10-10T12:15:50.159Z,320.00
2022-10-10T12:16:48.714Z,320.00
2022-10-10T12:17:48.708Z,320.00
2022-10-10T12:18:48.715Z,312.00
2022-10-10T12:19:48.688Z,316.00
2022-10-10T12:20:48.671Z,312.00
2022-10-10T12:21:48.663Z,316.00
2022-10-10T12:22:48.674Z,316.00
2022-10-10T12:23:48.639Z,316.00
2022-10-10T12:24:50.300Z,316.00
2022-10-10T12:25:48.638Z,312.00
2022-10-10T12:26:48.636Z,316.00
2022-10-10T12:27:48.596Z,312.00
2022-10-10T12:28:48.618Z,312.00
2022-10-10T12:29:51.115Z,308.00
2022-10-10T12:30:48.589Z,308.00
2022-10-10T12:31:48.556Z,308.00
2022-10-10T12:32:48.541Z,304.00
2022-10-10T12:33:48.529Z,300.00
2022-10-10T12:34:48.521Z,304.00
2022-10-10T12:35:48.509Z,300.00
2022-10-10T12:36:48.518Z,304.00
2022-10-10T12:37:48.486Z,304.00
2022-10-10T12:38:48.477Z,304.00
2022-10-10T12:39:48.467Z,308.00
2022-10-10T12:40:48.460Z,340.00
2022-10-10T12:41:48.457Z,324.00
2022-10-10T12:42:48.457Z,408.00
2022-10-10T12:43:48.424Z,340.00
2022-10-10T12:44:48.420Z,460.00
2022-10-10T12:45:48.408Z,496.00
2022-10-10T12:46:48.423Z,364.00
2022-10-10T12:48:06.028Z,324.00
2022-10-10T12:48:49.366Z,336.00
2022-10-10T12:49:48.355Z,344.00
2022-10-10T12:50:48.350Z,348.00
2022-10-10T12:51:48.332Z,1092.00